Overview Statistics Trail Chart Weather Telemetry Raw packets
 

This is the latest recevied weather packets stored in our database for station/object K1BES. If no packets are shown the sender has not sent any weather packets the latest 10 day(s).

<< 84 85 86 87 88 89 90 >>
Time Temp. Humidity Pressure Rain* Wind** Luminosity Snow
1788029097 35° C 60% 1018.3 hPa 0 mm - 951 W/m² -
1788028793 35° C 61% 1018.1 hPa 0 mm - 955 W/m² -
1788028487 35° C 58% 1018.3 hPa 0 mm - 964 W/m² -
1788028183 35° C 59% 1018.2 hPa 0 mm - 972 W/m² -
1788027882 35° C 59% 1018.3 hPa 0 mm - 980 W/m² -
1788027578 35° C 58% 1018.6 hPa 0 mm - 984 W/m² -
1788027278 35° C 58% 1018.8 hPa 0 mm - 987 W/m² -
1788026977 35° C 57% 1019.3 hPa 0 mm - 997 W/m² -
1788026672 35° C 60% 1019.2 hPa 0 mm - 996 W/m² -
1788026368 35° C 60% 1019.4 hPa 0 mm - 998 W/m² -
1788026063 35° C 60% 1019.5 hPa 0 mm - 1004 W/m² -
1788025761 35° C 60% 1019.4 hPa 0 mm - 1008 W/m² -
1788025468 35° C 60% 1019.3 hPa 0 mm - 1008 W/m² -
1788025152 35° C 58% 1019.6 hPa 0 mm - 1008 W/m² -
1788024851 35.56° C 60% 1019.4 hPa 0 mm - 1010 W/m² -
1788024548 35° C 60% 1019.5 hPa 0 mm - 1008 W/m² -
1788024247 34.44° C 60% 1019.5 hPa 0 mm - 1011 W/m² -
1788023942 35° C 59% 1019.5 hPa 0 mm - 1008 W/m² -
1788023650 35° C 59% 1019.6 hPa 0 mm - 1004 W/m² -
1788023334 35° C 60% 1019.4 hPa 0 mm - 1003 W/m² -
1788023034 34.44° C 63% 1019.4 hPa 0 mm - 1000 W/m² -
1788022732 34.44° C 62% 1019.6 hPa 0 mm - 999 W/m² -
1788022430 34.44° C 63% 1019.7 hPa 0 mm - 992 W/m² -
1788022125 35° C 62% 1019.8 hPa 0 mm - 978 W/m² -
1788021825 35° C 61% 1019.8 hPa 0 mm - 980 W/m² -

* Rain latest hour (hover to see other rain measurements)
** Current wind speed in m/s (hover to see current wind gust speed)